< < Back
Terminal Aerodrome Forecast


Current Version              Previous Versions:   1  2  3  4  5  6  7  8  9  

Terminal Aerodrome Forecast

911
FTUS42 KMLB 210500
TAFMCO
TAF
KMCO 210531Z 2106/2206 VRB03KT P6SM SCT250
     FM211400 31005KT P6SM FEW040 FEW250
     FM212100 12008KT P6SM SCT050 SCT250
     FM220100 15004KT P6SM FEW050 SCT250=



Latest METAR

113
SAUS70 KWBC 210800 RRR
MTRMCO
METAR KMCO 210753Z 28003KT 10SM FEW025 FEW250 26/23 A3008 RMK AO2 SLP186
T02610233


USA.gov is the U.S. government's official web portal to all federal, state and local government web resources and services.